CYKG

Kangiqsujuaq (Wakeham Bay) Airport

Kangiqsujuaq, Quebec, Canada
METAR CYKG 172100Z 19003KT 15SM FEW150 OVC240 M32/M38 A2972 RMK AC1CI8 AC TR SLP095
Observed Flight Rules
Feb-17 @ 21:00 UTC (37 minutes ago) Visual Flight Rules
Wind Visibility Clouds
190° at 3 knots 15 miles
  • Few at 15,000' AGL
  • Overcast at 24,000' AGL
Temperatures Readings
Current -32°C / -26°F
Dewpoint -38°C / -36°F
Humidity 55%
Altimeter 29.72" Hg
Pressure 1009.5 hPa
Elevation 151
METAR CYKG 172100Z 19003KT 15SM FEW150 OVC240 M32/M38 A2972 RMK AC1CI8 AC TR SLP095
Observed Flight Rules
Feb-17 @ 21:00 UTC
(37 minutes ago)
VFR
Wind Visibility
190° at 3 knots 15 miles
Clouds
  • Few at 15,000' AGL
  • Overcast at 24,000' AGL
Temperature Dewpoint
-32°C / -26°F -38°C / -36°F
Humidity Altimeter Pressure
55% 29.72" Hg 1009.5 hPa